sensor_id;sensor_type;location;lat;lon;timestamp;pressure;altitude;pressure_sealevel;temperature;humidity
72061;BME280;59925;52.136;5.420;2023-04-03T00:00:32;103274.72;;;2.98;69.87
72061;BME280;59925;52.136;5.420;2023-04-03T00:02:58;103275.72;;;2.97;70.21
72061;BME280;59925;52.136;5.420;2023-04-03T00:05:25;103276.00;;;2.94;70.31
72061;BME280;59925;52.136;5.420;2023-04-03T00:07:52;103277.16;;;2.91;69.68
72061;BME280;59925;52.136;5.420;2023-04-03T00:10:19;103275.81;;;2.87;70.43
72061;BME280;59925;52.136;5.420;2023-04-03T00:12:45;103283.75;;;2.87;70.54
72061;BME280;59925;52.136;5.420;2023-04-03T00:15:12;103280.28;;;2.86;70.03
72061;BME280;59925;52.136;5.420;2023-04-03T00:17:38;103287.88;;;2.81;70.21
72061;BME280;59925;52.136;5.420;2023-04-03T00:20:05;103285.53;;;2.78;70.01
72061;BME280;59925;52.136;5.420;2023-04-03T00:22:32;103280.41;;;2.76;70.58
72061;BME280;59925;52.136;5.420;2023-04-03T00:24:58;103281.38;;;2.75;70.23
72061;BME280;59925;52.136;5.420;2023-04-03T00:27:25;103284.34;;;2.72;70.60
72061;BME280;59925;52.136;5.420;2023-04-03T00:29:52;103282.66;;;2.71;70.71
72061;BME280;59925;52.136;5.420;2023-04-03T00:32:18;103279.38;;;2.69;70.91
72061;BME280;59925;52.136;5.420;2023-04-03T00:34:45;103286.78;;;2.66;70.65
72061;BME280;59925;52.136;5.420;2023-04-03T00:37:11;103286.13;;;2.64;70.93
72061;BME280;59925;52.136;5.420;2023-04-03T00:39:38;103282.78;;;2.62;70.94
72061;BME280;59925;52.136;5.420;2023-04-03T00:42:04;103287.41;;;2.59;71.09
72061;BME280;59925;52.136;5.420;2023-04-03T00:47:02;103292.66;;;2.51;71.86
72061;BME280;59925;52.136;5.420;2023-04-03T00:49:30;103287.50;;;2.50;71.44
72061;BME280;59925;52.136;5.420;2023-04-03T00:51:57;103298.09;;;2.50;72.01
72061;BME280;59925;52.136;5.420;2023-04-03T00:54:25;103300.22;;;2.46;71.54
72061;BME280;59925;52.136;5.420;2023-04-03T00:56:53;103303.03;;;2.44;71.72
72061;BME280;59925;52.136;5.420;2023-04-03T00:59:27;103296.22;;;2.42;71.59
72061;BME280;59925;52.136;5.420;2023-04-03T01:01:56;103298.19;;;2.40;72.34
72061;BME280;59925;52.136;5.420;2023-04-03T01:04:28;103309.09;;;2.37;72.53
72061;BME280;59925;52.136;5.420;2023-04-03T01:06:58;103299.34;;;2.37;72.16
72061;BME280;59925;52.136;5.420;2023-04-03T01:09:28;103298.81;;;2.34;72.47
72061;BME280;59925;52.136;5.420;2023-04-03T01:12:13;103299.13;;;2.30;72.96
72061;BME280;59925;52.136;5.420;2023-04-03T01:14:39;103304.56;;;2.29;72.66
72061;BME280;59925;52.136;5.420;2023-04-03T01:22:30;103311.97;;;2.25;72.88
72061;BME280;59925;52.136;5.420;2023-04-03T01:25:01;103311.97;;;2.25;73.28
72061;BME280;59925;52.136;5.420;2023-04-03T01:27:27;103311.44;;;2.22;73.21
72061;BME280;59925;52.136;5.420;2023-04-03T01:29:54;103308.97;;;2.20;73.87
72061;BME280;59925;52.136;5.420;2023-04-03T01:32:20;103299.50;;;2.18;73.20
72061;BME280;59925;52.136;5.420;2023-04-03T01:34:47;103305.94;;;2.15;73.63
72061;BME280;59925;52.136;5.420;2023-04-03T01:37:13;103307.59;;;2.16;73.61
72061;BME280;59925;52.136;5.420;2023-04-03T01:39:39;103309.41;;;2.16;73.33
72061;BME280;59925;52.136;5.420;2023-04-03T01:42:06;103305.25;;;2.13;74.08
72061;BME280;59925;52.136;5.420;2023-04-03T01:44:32;103299.28;;;2.11;73.99
72061;BME280;59925;52.136;5.420;2023-04-03T01:46:59;103295.97;;;2.09;74.27
72061;BME280;59925;52.136;5.420;2023-04-03T01:49:25;103296.94;;;2.08;74.31
72061;BME280;59925;52.136;5.420;2023-04-03T01:51:52;103303.34;;;2.05;74.44
72061;BME280;59925;52.136;5.420;2023-04-03T01:54:18;103304.50;;;2.03;74.30
72061;BME280;59925;52.136;5.420;2023-04-03T01:56:45;103302.81;;;2.02;74.82
72061;BME280;59925;52.136;5.420;2023-04-03T01:59:11;103304.94;;;1.98;75.01
72061;BME280;59925;52.136;5.420;2023-04-03T02:01:37;103304.13;;;1.97;74.60
72061;BME280;59925;52.136;5.420;2023-04-03T02:04:04;103302.75;;;1.93;75.11
72061;BME280;59925;52.136;5.420;2023-04-03T02:06:31;103300.28;;;1.92;75.04
72061;BME280;59925;52.136;5.420;2023-04-03T02:08:57;103305.69;;;1.90;75.44
72061;BME280;59925;52.136;5.420;2023-04-03T02:11:23;103305.84;;;1.89;75.52
72061;BME280;59925;52.136;5.420;2023-04-03T02:13:50;103318.41;;;1.87;75.34
72061;BME280;59925;52.136;5.420;2023-04-03T02:16:16;103317.88;;;1.83;75.49
72061;BME280;59925;52.136;5.420;2023-04-03T02:18:43;103319.84;;;1.81;75.52
72061;BME280;59925;52.136;5.420;2023-04-03T02:21:09;103326.25;;;1.78;76.05
72061;BME280;59925;52.136;5.420;2023-04-03T02:23:35;103321.09;;;1.77;75.68
72061;BME280;59925;52.136;5.420;2023-04-03T02:26:08;103322.25;;;1.74;76.01
72061;BME280;59925;52.136;5.420;2023-04-03T02:28:36;103326.69;;;1.74;76.34
72061;BME280;59925;52.136;5.420;2023-04-03T02:31:03;103320.72;;;1.72;76.57
72061;BME280;59925;52.136;5.420;2023-04-03T02:33:30;103313.78;;;1.71;76.11
72061;BME280;59925;52.136;5.420;2023-04-03T02:35:57;103312.25;;;1.68;76.35
72061;BME280;59925;52.136;5.420;2023-04-03T02:38:25;103321.16;;;1.67;76.59
72061;BME280;59925;52.136;5.420;2023-04-03T02:40:51;103320.50;;;1.65;76.51
72061;BME280;59925;52.136;5.420;2023-04-03T02:43:18;103317.97;;;1.63;76.57
72061;BME280;59925;52.136;5.420;2023-04-03T02:45:45;103326.88;;;1.62;76.99
72061;BME280;59925;52.136;5.420;2023-04-03T02:48:11;103321.06;;;1.59;77.01
72061;BME280;59925;52.136;5.420;2023-04-03T02:50:38;103335.28;;;1.58;77.00
72061;BME280;59925;52.136;5.420;2023-04-03T02:53:04;103331.13;;;1.55;76.81
72061;BME280;59925;52.136;5.420;2023-04-03T02:55:31;103342.66;;;1.54;76.88
72061;BME280;59925;52.136;5.420;2023-04-03T02:57:58;103337.50;;;1.52;77.07
72061;BME280;59925;52.136;5.420;2023-04-03T03:00:24;103347.44;;;1.50;77.28
72061;BME280;59925;52.136;5.420;2023-04-03T03:02:51;103349.22;;;1.50;77.24
72061;BME280;59925;52.136;5.420;2023-04-03T03:05:17;103345.19;;;1.46;77.60
72061;BME280;59925;52.136;5.420;2023-04-03T03:07:44;103349.94;;;1.42;77.71
72061;BME280;59925;52.136;5.420;2023-04-03T03:10:10;103356.22;;;1.41;77.64
72061;BME280;59925;52.136;5.420;2023-04-03T03:12:37;103360.81;;;1.39;78.02
72061;BME280;59925;52.136;5.420;2023-04-03T03:15:03;103358.31;;;1.37;77.86
72061;BME280;59925;52.136;5.420;2023-04-03T03:17:30;103364.75;;;1.35;78.02
72061;BME280;59925;52.136;5.420;2023-04-03T03:19:56;103363.22;;;1.32;78.01
72061;BME280;59925;52.136;5.420;2023-04-03T03:22:23;103365.03;;;1.32;78.28
72061;BME280;59925;52.136;5.420;2023-04-03T03:24:49;103365.31;;;1.29;78.34
72061;BME280;59925;52.136;5.420;2023-04-03T03:27:16;103361.97;;;1.27;78.75
72061;BME280;59925;52.136;5.420;2023-04-03T03:29:42;103368.09;;;1.27;78.23
72061;BME280;59925;52.136;5.420;2023-04-03T03:32:09;103359.47;;;1.25;78.48
72061;BME280;59925;52.136;5.420;2023-04-03T03:34:35;103369.34;;;1.23;78.63
72061;BME280;59925;52.136;5.420;2023-04-03T03:37:02;103366.19;;;1.19;78.86
72061;BME280;59925;52.136;5.420;2023-04-03T03:39:28;103367.16;;;1.18;78.93
72061;BME280;59925;52.136;5.420;2023-04-03T03:41:55;103368.13;;;1.17;78.83
72061;BME280;59925;52.136;5.420;2023-04-03T03:44:21;103366.34;;;1.18;79.04
72061;BME280;59925;52.136;5.420;2023-04-03T03:46:48;103366.63;;;1.15;79.04
72061;BME280;59925;52.136;5.420;2023-04-03T03:49:14;103363.28;;;1.13;78.96
72061;BME280;59925;52.136;5.420;2023-04-03T03:51:41;103368.56;;;1.13;79.05
72061;BME280;59925;52.136;5.420;2023-04-03T03:54:08;103368.03;;;1.09;79.28
72061;BME280;59925;52.136;5.420;2023-04-03T03:56:34;103370.78;;;1.07;79.28
72061;BME280;59925;52.136;5.420;2023-04-03T03:59:00;103369.13;;;1.06;79.14
72061;BME280;59925;52.136;5.420;2023-04-03T04:01:27;103364.41;;;1.00;78.89
72061;BME280;59925;52.136;5.420;2023-04-03T04:03:54;103368.84;;;1.00;79.20
72061;BME280;59925;52.136;5.420;2023-04-03T04:06:22;103371.81;;;0.97;79.58
72061;BME280;59925;52.136;5.420;2023-04-03T04:08:48;103376.41;;;0.95;79.53
72061;BME280;59925;52.136;5.420;2023-04-03T04:11:15;103365.94;;;0.93;79.89
72061;BME280;59925;52.136;5.420;2023-04-03T04:13:41;103373.06;;;0.93;80.09
72061;BME280;59925;52.136;5.420;2023-04-03T04:16:08;103374.19;;;0.90;79.83
72061;BME280;59925;52.136;5.420;2023-04-03T04:18:34;103392.78;;;0.88;80.14
72061;BME280;59925;52.136;5.420;2023-04-03T04:21:01;103385.84;;;0.87;80.07
72061;BME280;59925;52.136;5.420;2023-04-03T04:23:27;103384.19;;;0.86;80.40
72061;BME280;59925;52.136;5.420;2023-04-03T04:25:54;103387.81;;;0.85;80.49
72061;BME280;59925;52.136;5.420;2023-04-03T04:28:20;103391.13;;;0.87;80.90
72061;BME280;59925;52.136;5.420;2023-04-03T04:30:47;103386.16;;;0.84;80.81
72061;BME280;59925;52.136;5.420;2023-04-03T04:33:13;103384.59;;;0.82;81.07
72061;BME280;59925;52.136;5.420;2023-04-03T04:35:42;103389.88;;;0.82;81.01
72061;BME280;59925;52.136;5.420;2023-04-03T04:38:09;103386.28;;;0.83;81.07
72061;BME280;59925;52.136;5.420;2023-04-03T04:40:35;103393.66;;;0.79;81.05
72061;BME280;59925;52.136;5.420;2023-04-03T04:43:04;103391.16;;;0.78;81.44
72061;BME280;59925;52.136;5.420;2023-04-03T04:45:31;103396.56;;;0.76;81.36
72061;BME280;59925;52.136;5.420;2023-04-03T04:47:57;103399.34;;;0.74;81.71
72061;BME280;59925;52.136;5.420;2023-04-03T04:50:24;103405.59;;;0.73;81.65
72061;BME280;59925;52.136;5.420;2023-04-03T04:52:50;103399.47;;;0.73;81.64
72061;BME280;59925;52.136;5.420;2023-04-03T04:55:16;103390.03;;;0.70;81.79
72061;BME280;59925;52.136;5.420;2023-04-03T04:57:43;103401.56;;;0.69;81.96
72061;BME280;59925;52.136;5.420;2023-04-03T05:00:10;103401.88;;;0.66;82.02
72061;BME280;59925;52.136;5.420;2023-04-03T05:02:37;103402.84;;;0.65;82.01
72061;BME280;59925;52.136;5.420;2023-04-03T05:05:03;103402.84;;;0.65;81.87
72061;BME280;59925;52.136;5.420;2023-04-03T05:07:30;103402.97;;;0.64;81.80
72061;BME280;59925;52.136;5.420;2023-04-03T05:09:57;103401.28;;;0.63;82.12
72061;BME280;59925;52.136;5.420;2023-04-03T05:12:23;103403.13;;;0.62;82.08
72061;BME280;59925;52.136;5.420;2023-04-03T05:14:50;103412.00;;;0.61;82.46
72061;BME280;59925;52.136;5.420;2023-04-03T05:17:16;103407.53;;;0.61;82.46
72061;BME280;59925;52.136;5.420;2023-04-03T05:19:42;103401.72;;;0.58;82.22
72061;BME280;59925;52.136;5.420;2023-04-03T05:22:09;103413.13;;;0.58;82.36
72061;BME280;59925;52.136;5.420;2023-04-03T05:24:36;103414.81;;;0.59;82.52
72061;BME280;59925;52.136;5.420;2023-04-03T05:27:02;103420.91;;;0.60;82.56
72061;BME280;59925;52.136;5.420;2023-04-03T05:29:29;103413.13;;;0.58;82.32
72061;BME280;59925;52.136;5.420;2023-04-03T05:31:55;103428.13;;;0.58;82.73
72061;BME280;59925;52.136;5.420;2023-04-03T05:34:22;103416.59;;;0.59;82.57
72061;BME280;59925;52.136;5.420;2023-04-03T05:36:48;103420.06;;;0.59;82.52
72061;BME280;59925;52.136;5.420;2023-04-03T05:39:15;103422.03;;;0.57;82.64
72061;BME280;59925;52.136;5.420;2023-04-03T05:41:41;103415.78;;;0.58;82.54
72061;BME280;59925;52.136;5.420;2023-04-03T05:44:08;103425.22;;;0.61;82.75
72061;BME280;59925;52.136;5.420;2023-04-03T05:46:34;103422.00;;;0.67;82.81
72061;BME280;59925;52.136;5.420;2023-04-03T05:49:01;103430.19;;;0.84;82.98
72061;BME280;59925;52.136;5.420;2023-04-03T05:51:38;103434.50;;;0.85;82.61
72061;BME280;59925;52.136;5.420;2023-04-03T05:54:12;103437.56;;;0.90;82.80
72061;BME280;59925;52.136;5.420;2023-04-03T05:56:40;103445.47;;;1.00;82.21
72061;BME280;59925;52.136;5.420;2023-04-03T05:59:07;103438.81;;;0.96;81.84
72061;BME280;59925;52.136;5.420;2023-04-03T06:01:33;103438.81;;;0.96;82.12
72061;BME280;59925;52.136;5.420;2023-04-03T06:04:00;103452.56;;;0.99;82.19
72061;BME280;59925;52.136;5.420;2023-04-03T06:06:43;103454.50;;;1.07;82.63
72061;BME280;59925;52.136;5.420;2023-04-03T06:09:10;103456.84;;;1.20;82.82
72061;BME280;59925;52.136;5.420;2023-04-03T06:11:37;103446.88;;;1.89;84.85
72061;BME280;59925;52.136;5.420;2023-04-03T06:14:03;103441.50;;;3.17;83.88
72061;BME280;59925;52.136;5.420;2023-04-03T06:16:30;103447.47;;;3.80;79.22
72061;BME280;59925;52.136;5.420;2023-04-03T06:18:56;103443.13;;;3.18;76.55
72061;BME280;59925;52.136;5.420;2023-04-03T06:21:23;103444.06;;;2.65;77.26
72061;BME280;59925;52.136;5.420;2023-04-03T06:23:49;103449.41;;;2.37;77.54
72061;BME280;59925;52.136;5.420;2023-04-03T06:26:17;103458.25;;;2.27;77.85
72061;BME280;59925;52.136;5.420;2023-04-03T06:28:45;103454.78;;;2.27;78.44
72061;BME280;59925;52.136;5.420;2023-04-03T06:31:11;103448.34;;;2.29;78.23
72061;BME280;59925;52.136;5.420;2023-04-03T06:33:38;103458.19;;;2.37;78.40
72061;BME280;59925;52.136;5.420;2023-04-03T06:36:04;103461.56;;;2.29;78.60
72061;BME280;59925;52.136;5.420;2023-04-03T06:38:32;103461.44;;;2.31;79.04
72061;BME280;59925;52.136;5.420;2023-04-03T06:40:59;103465.16;;;2.38;78.69
72061;BME280;59925;52.136;5.420;2023-04-03T06:43:25;103471.66;;;2.44;78.37
72061;BME280;59925;52.136;5.420;2023-04-03T06:45:52;103473.03;;;2.48;78.65
72061;BME280;59925;52.136;5.420;2023-04-03T06:48:18;103475.06;;;2.54;78.32
72061;BME280;59925;52.136;5.420;2023-04-03T06:50:45;103472.97;;;2.58;78.58
72061;BME280;59925;52.136;5.420;2023-04-03T06:53:11;103480.06;;;2.75;77.88
72061;BME280;59925;52.136;5.420;2023-04-03T06:55:38;103477.06;;;2.88;78.21
72061;BME280;59925;52.136;5.420;2023-04-03T06:58:05;103488.56;;;2.97;77.81
72061;BME280;59925;52.136;5.420;2023-04-03T07:00:31;103483.16;;;3.07;78.10
72061;BME280;59925;52.136;5.420;2023-04-03T07:02:58;103485.72;;;3.17;77.42
72061;BME280;59925;52.136;5.420;2023-04-03T07:05:25;103482.97;;;3.27;77.02
72061;BME280;59925;52.136;5.420;2023-04-03T07:07:52;103491.16;;;3.33;76.71
72061;BME280;59925;52.136;5.420;2023-04-03T07:10:19;103488.69;;;3.40;76.36
72061;BME280;59925;52.136;5.420;2023-04-03T07:12:46;103496.91;;;3.55;76.52
72061;BME280;59925;52.136;5.420;2023-04-03T07:15:13;103501.44;;;3.63;76.05
72061;BME280;59925;52.136;5.420;2023-04-03T07:17:40;103495.19;;;3.72;74.96
72061;BME280;59925;52.136;5.420;2023-04-03T07:20:08;103493.88;;;3.76;74.96
72061;BME280;59925;52.136;5.420;2023-04-03T07:22:34;103496.56;;;3.84;74.96
72061;BME280;59925;52.136;5.420;2023-04-03T07:25:01;103493.47;;;3.89;74.09
72061;BME280;59925;52.136;5.420;2023-04-03T07:27:28;103506.25;;;3.94;73.73
72061;BME280;59925;52.136;5.420;2023-04-03T07:29:55;103504.81;;;4.08;73.84
72061;BME280;59925;52.136;5.420;2023-04-03T07:32:22;103508.31;;;4.17;73.77
72061;BME280;59925;52.136;5.420;2023-04-03T07:34:48;103504.22;;;4.30;73.18
72061;BME280;59925;52.136;5.420;2023-04-03T07:37:15;103502.28;;;4.41;72.85
72061;BME280;59925;52.136;5.420;2023-04-03T07:39:43;103508.28;;;4.51;72.94
72061;BME280;59925;52.136;5.420;2023-04-03T07:42:11;103509.81;;;4.70;72.97
72061;BME280;59925;52.136;5.420;2023-04-03T07:44:38;103511.81;;;4.85;72.42
72061;BME280;59925;52.136;5.420;2023-04-03T07:47:04;103517.13;;;4.93;71.91
72061;BME280;59925;52.136;5.420;2023-04-03T07:49:31;103519.28;;;4.89;71.19
72061;BME280;59925;52.136;5.420;2023-04-03T07:51:59;103516.78;;;5.04;71.19
72061;BME280;59925;52.136;5.420;2023-04-03T07:54:25;103512.97;;;4.99;70.33
72061;BME280;59925;52.136;5.420;2023-04-03T07:56:52;103520.78;;;4.92;69.91
72061;BME280;59925;52.136;5.420;2023-04-03T07:59:19;103531.91;;;5.12;69.86
72061;BME280;59925;52.136;5.420;2023-04-03T08:01:45;103523.28;;;5.18;69.01
72061;BME280;59925;52.136;5.420;2023-04-03T08:04:12;103518.81;;;5.27;67.87
72061;BME280;59925;52.136;5.420;2023-04-03T08:06:38;103517.97;;;5.27;67.30
72061;BME280;59925;52.136;5.420;2023-04-03T08:09:13;103513.63;;;5.42;67.32
72061;BME280;59925;52.136;5.420;2023-04-03T08:11:41;103517.53;;;5.79;66.91
72061;BME280;59925;52.136;5.420;2023-04-03T08:14:07;103512.66;;;6.00;66.28
72061;BME280;59925;52.136;5.420;2023-04-03T08:16:33;103525.47;;;5.96;65.74
72061;BME280;59925;52.136;5.420;2023-04-03T08:19:00;103527.31;;;6.04;64.86
72061;BME280;59925;52.136;5.420;2023-04-03T08:21:27;103526.06;;;6.23;64.72
72061;BME280;59925;52.136;5.420;2023-04-03T08:23:54;103522.53;;;6.22;63.65
72061;BME280;59925;52.136;5.420;2023-04-03T08:26:21;103521.00;;;6.36;63.19
72061;BME280;59925;52.136;5.420;2023-04-03T08:28:48;103523.72;;;6.51;63.07
72061;BME280;59925;52.136;5.420;2023-04-03T08:31:17;103538.16;;;6.65;63.21
72061;BME280;59925;52.136;5.420;2023-04-03T08:33:45;103539.66;;;6.91;62.64
72061;BME280;59925;52.136;5.420;2023-04-03T08:36:20;103534.25;;;6.99;61.61
72061;BME280;59925;52.136;5.420;2023-04-03T08:38:49;103539.00;;;7.12;61.62
72061;BME280;59925;52.136;5.420;2023-04-03T08:44:05;103546.09;;;7.20;59.09
72061;BME280;59925;52.136;5.420;2023-04-03T08:46:46;103545.38;;;7.41;58.49
72061;BME280;59925;52.136;5.420;2023-04-03T08:49:37;103535.84;;;7.62;57.46
72061;BME280;59925;52.136;5.420;2023-04-03T08:52:11;103547.91;;;7.58;56.62
72061;BME280;59925;52.136;5.420;2023-04-03T08:54:51;103532.72;;;7.58;55.98
72061;BME280;59925;52.136;5.420;2023-04-03T08:57:41;103538.25;;;7.87;54.83
72061;BME280;59925;52.136;5.420;2023-04-03T09:08:17;103520.88;;;8.42;52.48
72061;BME280;59925;52.136;5.420;2023-04-03T09:10:48;103524.03;;;8.68;51.65
72061;BME280;59925;52.136;5.420;2023-04-03T09:13:29;103525.16;;;8.80;49.14
72061;BME280;59925;52.136;5.420;2023-04-03T09:15:57;103530.59;;;8.65;47.69
72061;BME280;59925;52.136;5.420;2023-04-03T09:18:30;103528.78;;;8.51;45.88
72061;BME280;59925;52.136;5.420;2023-04-03T09:21:36;103529.16;;;8.48;47.94
72061;BME280;59925;52.136;5.420;2023-04-03T09:24:06;103527.41;;;8.55;45.30
72061;BME280;59925;52.136;5.420;2023-04-03T09:26:41;103529.72;;;8.58;45.13
72061;BME280;59925;52.136;5.420;2023-04-03T09:29:14;103537.53;;;8.59;45.47
72061;BME280;59925;52.136;5.420;2023-04-03T09:31:44;103530.34;;;8.60;45.05
72061;BME280;59925;52.136;5.420;2023-04-03T09:34:26;103526.53;;;8.69;44.74
72061;BME280;59925;52.136;5.420;2023-04-03T09:36:56;103514.97;;;8.69;45.56
72061;BME280;59925;52.136;5.420;2023-04-03T09:39:28;103517.56;;;8.77;44.37
72061;BME280;59925;52.136;5.420;2023-04-03T09:44:57;103518.22;;;9.08;44.20
72061;BME280;59925;52.136;5.420;2023-04-03T09:47:28;103523.94;;;9.26;42.35
72061;BME280;59925;52.136;5.420;2023-04-03T09:52:44;103518.34;;;9.21;41.70
72061;BME280;59925;52.136;5.420;2023-04-03T09:55:16;103506.25;;;9.60;40.82
72061;BME280;59925;52.136;5.420;2023-04-03T09:57:45;103507.78;;;9.83;39.94
72061;BME280;59925;52.136;5.420;2023-04-03T10:00:33;103500.63;;;9.90;41.01
72061;BME280;59925;52.136;5.420;2023-04-03T10:03:03;103489.78;;;10.12;39.90
72061;BME280;59925;52.136;5.420;2023-04-03T10:05:38;103490.25;;;10.29;39.79
72061;BME280;59925;52.136;5.420;2023-04-03T10:10:47;103478.41;;;10.03;39.97
72061;BME280;59925;52.136;5.420;2023-04-03T10:13:16;103473.91;;;10.10;39.42
72061;BME280;59925;52.136;5.420;2023-04-03T10:15:56;103487.41;;;10.37;37.41
72061;BME280;59925;52.136;5.420;2023-04-03T10:18:39;103487.84;;;10.41;37.74
72061;BME280;59925;52.136;5.420;2023-04-03T10:21:23;103479.34;;;10.37;37.90
72061;BME280;59925;52.136;5.420;2023-04-03T10:26:35;103465.28;;;10.22;37.68
72061;BME280;59925;52.136;5.420;2023-04-03T10:29:10;103458.97;;;10.56;38.70
72061;BME280;59925;52.136;5.420;2023-04-03T10:34:33;103455.47;;;10.89;38.92
72061;BME280;59925;52.136;5.420;2023-04-03T10:37:21;103447.63;;;11.15;38.67
72061;BME280;59925;52.136;5.420;2023-04-03T10:42:43;103436.88;;;11.15;37.87
72061;BME280;59925;52.136;5.420;2023-04-03T10:50:43;103427.53;;;11.31;35.93
72061;BME280;59925;52.136;5.420;2023-04-03T10:53:31;103443.91;;;11.16;35.70
72061;BME280;59925;52.136;5.420;2023-04-03T10:58:55;103422.78;;;11.33;35.09
72061;BME280;59925;52.136;5.420;2023-04-03T11:01:30;103430.25;;;11.17;35.34
72061;BME280;59925;52.136;5.420;2023-04-03T11:04:00;103425.50;;;11.26;34.97
72061;BME280;59925;52.136;5.420;2023-04-03T11:06:45;103426.09;;;11.35;36.87
72061;BME280;59925;52.136;5.420;2023-04-03T11:09:22;103421.81;;;11.66;36.60
72061;BME280;59925;52.136;5.420;2023-04-03T11:11:55;103425.00;;;12.02;34.57
72061;BME280;59925;52.136;5.420;2023-04-03T11:14:34;103418.97;;;12.06;36.31
72061;BME280;59925;52.136;5.420;2023-04-03T11:17:11;103419.78;;;12.14;35.67
72061;BME280;59925;52.136;5.420;2023-04-03T11:19:46;103422.28;;;12.08;35.97
72061;BME280;59925;52.136;5.420;2023-04-03T11:22:32;103410.28;;;12.04;36.01
72061;BME280;59925;52.136;5.420;2023-04-03T11:27:59;103411.44;;;12.72;36.41
72061;BME280;59925;52.136;5.420;2023-04-03T11:35:54;103420.66;;;12.01;35.60
72061;BME280;59925;52.136;5.420;2023-04-03T11:38:41;103417.31;;;12.05;33.99
72061;BME280;59925;52.136;5.420;2023-04-03T11:41:09;103413.31;;;11.76;34.12
72061;BME280;59925;52.136;5.420;2023-04-03T11:43:57;103402.59;;;12.15;36.39
72061;BME280;59925;52.136;5.420;2023-04-03T11:46:57;103400.75;;;12.40;35.00
72061;BME280;59925;52.136;5.420;2023-04-03T11:49:53;103411.38;;;11.96;34.90
72061;BME280;59925;52.136;5.420;2023-04-03T12:13:40;103384.41;;;12.86;34.08
72061;BME280;59925;52.136;5.420;2023-04-03T12:16:28;103383.38;;;12.87;34.68
72061;BME280;59925;52.136;5.420;2023-04-03T12:19:04;103373.34;;;12.76;34.44
72061;BME280;59925;52.136;5.420;2023-04-03T12:26:51;103359.97;;;13.06;32.61
72061;BME280;59925;52.136;5.420;2023-04-03T12:35:04;103351.44;;;13.46;33.46
72061;BME280;59925;52.136;5.420;2023-04-03T12:43:29;103349.66;;;13.40;33.11
72061;BME280;59925;52.136;5.420;2023-04-03T12:46:19;103344.63;;;13.25;33.78
72061;BME280;59925;52.136;5.420;2023-04-03T12:48:55;103331.59;;;14.02;33.55
72061;BME280;59925;52.136;5.420;2023-04-03T12:51:30;103323.28;;;14.63;33.27
72061;BME280;59925;52.136;5.420;2023-04-03T12:54:03;103319.47;;;13.92;33.62
72061;BME280;59925;52.136;5.420;2023-04-03T12:56:31;103324.44;;;13.65;33.05
72061;BME280;59925;52.136;5.420;2023-04-03T12:59:22;103313.13;;;13.44;32.09
72061;BME280;59925;52.136;5.420;2023-04-03T13:01:59;103312.44;;;13.91;32.20
72061;BME280;59925;52.136;5.420;2023-04-03T13:04:31;103305.59;;;14.31;32.29
72061;BME280;59925;52.136;5.420;2023-04-03T13:06:58;103313.91;;;14.30;32.60
72061;BME280;59925;52.136;5.420;2023-04-03T13:09:27;103311.09;;;14.24;32.63
72061;BME280;59925;52.136;5.420;2023-04-03T13:12:24;103300.41;;;14.30;32.30
72061;BME280;59925;52.136;5.420;2023-04-03T13:14:56;103309.44;;;14.00;30.77
72061;BME280;59925;52.136;5.420;2023-04-03T13:17:24;103288.06;;;13.44;32.08
72061;BME280;59925;52.136;5.420;2023-04-03T13:19:51;103299.47;;;13.58;31.39
72061;BME280;59925;52.136;5.420;2023-04-03T13:22:34;103294.72;;;13.84;33.46
72061;BME280;59925;52.136;5.420;2023-04-03T13:25:07;103291.72;;;14.39;33.00
72061;BME280;59925;52.136;5.420;2023-04-03T13:27:35;103281.97;;;14.86;32.27
72061;BME280;59925;52.136;5.420;2023-04-03T13:30:03;103286.38;;;15.04;31.45
72061;BME280;59925;52.136;5.420;2023-04-03T13:32:31;103291.06;;;14.97;30.86
72061;BME280;59925;52.136;5.420;2023-04-03T13:34:58;103287.25;;;14.57;31.43
72061;BME280;59925;52.136;5.420;2023-04-03T13:37:54;103288.09;;;14.46;31.60
72061;BME280;59925;52.136;5.420;2023-04-03T13:40:22;103279.84;;;14.64;32.65
72061;BME280;59925;52.136;5.420;2023-04-03T13:43:01;103292.06;;;14.91;32.14
72061;BME280;59925;52.136;5.420;2023-04-03T13:45:30;103291.84;;;14.80;31.25
72061;BME280;59925;52.136;5.420;2023-04-03T13:50:55;103281.06;;;15.38;30.57
72061;BME280;59925;52.136;5.420;2023-04-03T13:53:24;103284.94;;;15.42;30.64
72061;BME280;59925;52.136;5.420;2023-04-03T13:58:30;103284.56;;;15.22;30.00
72061;BME280;59925;52.136;5.420;2023-04-03T14:01:09;103294.38;;;15.28;29.23
72061;BME280;59925;52.136;5.420;2023-04-03T14:03:56;103283.03;;;15.43;30.04
72061;BME280;59925;52.136;5.420;2023-04-03T14:06:24;103274.28;;;15.53;30.78
72061;BME280;59925;52.136;5.420;2023-04-03T14:08:51;103276.22;;;15.69;29.79
72061;BME280;59925;52.136;5.420;2023-04-03T14:11:21;103268.66;;;15.54;30.55
72061;BME280;59925;52.136;5.420;2023-04-03T14:13:50;103263.91;;;15.15;30.29
72061;BME280;59925;52.136;5.420;2023-04-03T14:16:20;103265.97;;;15.25;30.73
72061;BME280;59925;52.136;5.420;2023-04-03T14:18:50;103267.03;;;14.83;31.27
72061;BME280;59925;52.136;5.420;2023-04-03T14:21:18;103261.88;;;14.82;30.20
72061;BME280;59925;52.136;5.420;2023-04-03T14:23:45;103250.94;;;14.89;31.86
72061;BME280;59925;52.136;5.420;2023-04-03T14:26:18;103252.06;;;15.05;30.36
72061;BME280;59925;52.136;5.420;2023-04-03T14:28:49;103251.09;;;14.82;31.72
72061;BME280;59925;52.136;5.420;2023-04-03T14:31:16;103248.63;;;15.38;31.67
72061;BME280;59925;52.136;5.420;2023-04-03T14:33:42;103245.56;;;15.17;30.66
72061;BME280;59925;52.136;5.420;2023-04-03T14:36:18;103235.03;;;15.33;31.01
72061;BME280;59925;52.136;5.420;2023-04-03T14:38:47;103237.53;;;15.23;30.49
72061;BME280;59925;52.136;5.420;2023-04-03T14:41:17;103234.31;;;15.55;31.40
72061;BME280;59925;52.136;5.420;2023-04-03T14:43:45;103227.69;;;15.62;30.42
72061;BME280;59925;52.136;5.420;2023-04-03T14:46:18;103232.78;;;15.59;30.92